createdAt,value
2023-06-07T04:04:13.496Z,6.75
2023-06-07T04:07:17.370Z,6.78
2023-06-07T04:10:20.512Z,5.85
2023-06-07T04:13:22.937Z,6.15
2023-06-07T04:16:25.280Z,6.40
2023-06-07T04:19:28.411Z,6.00
2023-06-07T04:22:31.612Z,6.00
2023-06-07T04:25:34.972Z,5.68
2023-06-07T04:28:41.803Z,5.57
2023-06-07T04:31:45.735Z,5.50
2023-06-07T04:34:48.826Z,5.35
2023-06-07T04:37:52.165Z,5.12
2023-06-07T04:40:54.942Z,5.80
2023-06-07T04:43:58.392Z,5.22
2023-06-07T04:47:08.037Z,5.43
2023-06-07T04:50:11.995Z,5.75
2023-06-07T04:53:19.048Z,5.53
2023-06-07T04:56:22.747Z,5.60
2023-06-07T04:59:25.921Z,5.25
2023-06-07T05:02:28.501Z,5.93
2023-06-07T05:05:31.081Z,5.70
2023-06-07T05:08:33.797Z,5.65
2023-06-07T05:11:36.306Z,5.85
2023-06-07T05:14:39.474Z,5.50
2023-06-07T05:17:41.913Z,5.40
2023-06-07T05:20:47.081Z,5.35
2023-06-07T05:23:49.479Z,5.53
2023-06-07T05:26:52.530Z,5.55
2023-06-07T05:29:54.773Z,5.57
2023-06-07T05:32:58.382Z,5.05
2023-06-07T05:36:01.768Z,5.22
2023-06-07T05:39:05.006Z,4.82
2023-06-07T05:42:07.929Z,4.90
2023-06-07T05:45:10.655Z,5.47
2023-06-07T05:48:13.058Z,4.93
2023-06-07T05:51:15.611Z,5.72
2023-06-07T05:54:18.853Z,5.32
2023-06-07T05:57:22.248Z,5.60
2023-06-07T06:00:25.153Z,5.37
2023-06-07T06:03:27.957Z,5.87
2023-06-07T06:06:30.206Z,5.78
2023-06-07T06:09:32.693Z,6.62
2023-06-07T06:12:35.093Z,6.03
2023-06-07T06:15:37.639Z,6.80
2023-06-07T06:18:41.517Z,6.37
2023-06-07T06:21:44.500Z,6.87
2023-06-07T06:24:46.800Z,6.25
2023-06-07T06:27:49.269Z,6.87
2023-06-07T06:30:51.500Z,7.40
2023-06-07T06:33:54.431Z,5.57
2023-06-07T06:36:58.282Z,6.53
2023-06-07T06:40:00.896Z,6.95
2023-06-07T06:43:03.048Z,6.45
2023-06-07T06:46:06.737Z,6.28
2023-06-07T06:49:12.612Z,6.00
2023-06-07T06:52:16.698Z,7.10
2023-06-07T06:55:19.021Z,6.47
2023-06-07T06:58:21.594Z,7.03
2023-06-07T07:01:24.043Z,6.90
2023-06-07T07:04:26.869Z,6.55
2023-06-07T07:07:29.150Z,6.82
2023-06-07T07:10:33.455Z,6.30
2023-06-07T07:13:35.971Z,7.30
2023-06-07T07:16:41.651Z,6.35
2023-06-07T07:19:44.061Z,6.50
2023-06-07T07:22:47.209Z,6.70
2023-06-07T07:25:49.472Z,7.60
2023-06-07T07:28:53.883Z,6.80
2023-06-07T07:31:56.656Z,6.50
2023-06-07T07:34:59.868Z,6.60
2023-06-07T07:38:03.483Z,6.43
2023-06-07T07:41:06.690Z,6.65
2023-06-07T07:44:08.911Z,5.90
2023-06-07T07:47:13.036Z,6.93
2023-06-07T07:50:16.786Z,6.25
2023-06-07T07:53:19.409Z,6.12
2023-06-07T07:56:24.527Z,6.30
2023-06-07T07:59:28.165Z,6.93
2023-06-07T08:02:31.016Z,5.35
2023-06-07T08:05:33.644Z,6.72
2023-06-07T08:08:35.885Z,6.40
2023-06-07T08:11:38.908Z,6.57
2023-06-07T08:14:41.232Z,6.37
2023-06-07T08:17:43.750Z,6.07
2023-06-07T08:20:46.021Z,6.55
2023-06-07T08:23:48.753Z,6.03
2023-06-07T08:26:51.107Z,6.15
2023-06-07T08:29:53.901Z,6.62
2023-06-07T08:32:56.486Z,6.20
2023-06-07T08:35:58.996Z,6.60
2023-06-07T08:39:02.564Z,6.87
2023-06-07T08:42:06.147Z,6.80
2023-06-07T08:45:08.582Z,7.40
2023-06-07T08:48:13.477Z,6.97
2023-06-07T08:51:17.893Z,6.40
2023-06-07T08:54:27.348Z,7.20
2023-06-07T08:57:32.019Z,6.18
2023-06-07T09:00:36.252Z,6.73
2023-06-07T09:03:38.452Z,6.62
2023-06-07T09:06:41.474Z,6.93
2023-06-07T09:09:46.968Z,6.53
2023-06-07T09:15:53.731Z,7.65
2023-06-07T09:18:56.518Z,7.10
2023-06-07T09:21:58.698Z,7.12
2023-06-07T09:25:08.419Z,6.90
2023-06-07T09:28:12.435Z,7.20
2023-06-07T09:31:33.337Z,7.70
2023-06-07T09:34:35.771Z,7.55
2023-06-07T09:37:46.917Z,6.65
2023-06-07T09:40:52.474Z,7.35
2023-06-07T09:43:55.528Z,7.75
2023-06-07T09:47:03.088Z,7.53
2023-06-07T09:50:08.448Z,7.37
2023-06-07T09:53:10.605Z,7.12
2023-06-07T09:56:17.725Z,8.13
2023-06-07T09:59:20.031Z,7.07
2023-06-07T10:02:27.788Z,6.93
2023-06-07T10:05:30.233Z,6.95
2023-06-07T10:08:32.753Z,7.15
2023-06-07T10:11:37.549Z,8.05
2023-06-07T10:14:41.829Z,7.95
2023-06-07T10:17:56.825Z,7.70
2023-06-07T10:21:03.716Z,8.50
2023-06-07T10:24:10.930Z,9.15
2023-06-07T10:27:18.240Z,8.05
2023-06-07T10:30:25.479Z,9.05
2023-06-07T10:33:28.260Z,9.70
2023-06-07T10:36:31.020Z,9.85
2023-06-07T10:39:33.223Z,9.80
2023-06-07T10:42:36.416Z,7.37
2023-06-07T10:45:38.681Z,8.82
2023-06-07T10:48:44.813Z,9.25
2023-06-07T10:51:54.803Z,9.35
2023-06-07T10:54:57.668Z,10.30
2023-06-07T10:58:01.352Z,9.05
2023-06-07T11:01:24.990Z,8.75
2023-06-07T11:04:39.605Z,9.27
2023-06-07T11:07:48.880Z,9.05
2023-06-07T11:10:51.572Z,8.88
2023-06-07T11:13:54.354Z,9.02
2023-06-07T11:16:57.204Z,8.70
2023-06-07T11:20:00.872Z,8.95
2023-06-07T11:23:26.182Z,9.68
2023-06-07T11:26:28.960Z,10.00
2023-06-07T11:29:31.332Z,9.70
2023-06-07T11:32:39.769Z,8.90
2023-06-07T11:35:43.422Z,8.95
2023-06-07T11:38:50.500Z,10.18
2023-06-07T11:41:52.689Z,9.88
2023-06-07T11:44:55.591Z,10.30
2023-06-07T11:48:01.824Z,10.07
2023-06-07T11:51:04.502Z,9.93
2023-06-07T11:54:07.466Z,10.02
2023-06-07T11:57:10.995Z,10.05
2023-06-07T12:00:18.783Z,9.85
2023-06-07T12:03:23.140Z,10.80
2023-06-07T12:06:27.282Z,10.70
2023-06-07T12:09:29.553Z,8.68
2023-06-07T12:12:32.140Z,9.85
2023-06-07T12:15:35.794Z,9.68
2023-06-07T12:18:39.334Z,11.15
2023-06-07T12:21:41.564Z,10.45
2023-06-07T12:24:43.984Z,10.23
2023-06-07T12:27:50.044Z,10.50
2023-06-07T12:30:53.334Z,10.90
2023-06-07T12:34:03.615Z,10.73
2023-06-07T12:37:06.449Z,10.98
2023-06-07T12:40:09.350Z,10.27
2023-06-07T12:43:11.906Z,10.57
2023-06-07T12:46:14.350Z,9.60
2023-06-07T12:49:16.816Z,9.23
2023-06-07T12:52:19.277Z,10.40
2023-06-07T12:55:21.979Z,9.18
2023-06-07T12:58:24.171Z,10.13
2023-06-07T13:01:26.774Z,10.52
2023-06-07T13:04:31.013Z,9.80
2023-06-07T13:07:34.908Z,10.53
2023-06-07T13:10:37.732Z,10.25
2023-06-07T13:13:40.231Z,10.63
2023-06-07T13:16:44.452Z,10.18
2023-06-07T13:19:47.514Z,9.50
2023-06-07T13:22:49.935Z,9.90
2023-06-07T13:25:52.364Z,10.05
2023-06-07T13:28:54.588Z,10.05
2023-06-07T13:31:57.300Z,9.40
2023-06-07T13:34:59.496Z,9.73
2023-06-07T13:38:01.935Z,9.85
2023-06-07T13:41:04.572Z,10.38
2023-06-07T13:44:17.283Z,10.35
2023-06-07T13:47:22.062Z,9.93
2023-06-07T13:50:24.617Z,9.18
2023-06-07T13:53:27.311Z,9.73
2023-06-07T13:56:30.831Z,9.40
2023-06-07T13:59:33.315Z,10.02
2023-06-07T14:02:36.122Z,10.18
2023-06-07T14:05:38.898Z,10.10
2023-06-07T14:08:41.086Z,9.65
2023-06-07T14:11:43.937Z,9.13
2023-06-07T14:14:46.227Z,9.93
2023-06-07T14:17:48.750Z,8.93
2023-06-07T14:20:51.073Z,9.13
2023-06-07T14:23:53.680Z,8.30
2023-06-07T14:26:55.862Z,8.43
2023-06-07T14:29:58.283Z,8.80
2023-06-07T14:33:00.548Z,9.45
2023-06-07T14:36:03.598Z,10.23
2023-06-07T14:39:05.777Z,9.98
2023-06-07T14:42:08.280Z,8.88
2023-06-07T14:45:11.039Z,10.70
2023-06-07T14:48:13.513Z,11.40
2023-06-07T14:51:16.596Z,9.93
2023-06-07T14:54:19.025Z,11.43
2023-06-07T14:57:21.431Z,12.15
2023-06-07T15:00:23.924Z,11.95
2023-06-07T15:03:26.181Z,10.73
2023-06-07T15:06:28.713Z,11.20
2023-06-07T15:09:33.978Z,10.07
2023-06-07T15:15:39.990Z,10.52
2023-06-07T15:18:42.556Z,10.77
2023-06-07T15:21:44.800Z,10.55
2023-06-07T15:24:47.231Z,10.63
2023-06-07T15:27:49.367Z,10.60
2023-06-07T15:30:51.779Z,10.35
2023-06-07T15:33:55.804Z,10.13
2023-06-07T15:36:58.489Z,9.50
2023-06-07T15:40:00.739Z,10.48
2023-06-07T15:43:03.193Z,10.23
2023-06-07T15:46:05.804Z,9.98
2023-06-07T15:49:08.215Z,10.40
2023-06-07T15:52:10.588Z,10.80
2023-06-07T15:55:13.116Z,9.60
2023-06-07T16:01:20.998Z,9.88
2023-06-07T16:04:23.510Z,10.32
2023-06-07T16:07:26.685Z,9.38
2023-06-07T16:10:29.133Z,9.98
2023-06-07T16:13:31.253Z,10.38
2023-06-07T16:16:34.689Z,9.90
2023-06-07T16:19:37.934Z,8.60
2023-06-07T16:22:40.377Z,8.65
2023-06-07T16:25:42.572Z,7.65
